• Join FlightAware (Why Join?)
  • Login
  • US Flag 
06:36PM EDT


 

Airport Tracker/Info


-or-


 

Live Flight TrackerFlight Track Log ✈ DAL3698 ✈ 17-May-2013 ✈ KLAN - KMSP

Flight Track Log - Related Links

Times and Time Zones

All times are in EDT time to prevent confusion due to time zone crossing. See the DAL3698 flight status page for this flight to view local times or setup timezone preferences in your user account.

Time Position Orientation Groundspeed Altitude Reporting Facility
EDT Latitude Longitude Course Direction KTS MPH feet Rate Location/Type
07:26AM 42.8328 -84.5217 276° West 224 258 4,600  Level Cleveland Center
07:27AM 42.8464 -84.6075 282° West 225 259 6,400 2,340 Climbing Cleveland Center
07:28AM 42.8450 -84.7067 269° West 249 287 9,300 2,640 Climbing Cleveland Center
07:28AM 42.8453 -84.7186 272° West 264 304 9,800 1,260 Climbing Chicago Center
07:29AM 42.8378 -84.8314 265° West 300 345 11,000 1,500 Climbing Chicago Center
07:30AM 42.8297 -84.9578 265° West 330 380 13,000 1,980 Climbing Chicago Center
07:31AM 42.7655 -85.3015 276° West  Level FlightAware Approximate
07:31AM 42.8167 -85.1136 264° West 343 395 15,100  Level Chicago Center
07:32AM 42.8411 -85.2436 284° West 355 409 16,700 1,500 Climbing Chicago Center
07:33AM 42.8772 -85.3664 292° West 351 404 18,200 1,080 Climbing Chicago Center
07:34AM 42.9111 -85.4850 291° West 345 397 19,000 420 Climbing Chicago Center
07:35AM 42.9461 -85.6094 291° West 353 406 19,100 540 Climbing Chicago Center
07:36AM 42.9822 -85.7369 291° West 358 412 20,200 960 Climbing Chicago Center
07:37AM 43.0181 -85.8647 291° West 362 417 21,200 960 Climbing Chicago Center
07:38AM 43.0614 -86.0078 293° West 361 415 22,300 960 Climbing Chicago Center
07:39AM 43.0947 -86.1392 289° West 370 426 23,200 780 Climbing Chicago Center
07:40AM 43.1314 -86.2731 291° West 375 432 24,000 780 Climbing Chicago Center
07:41AM 43.1681 -86.4033 291° West 371 427 24,800 780 Climbing Chicago Center
07:42AM 43.2386 -86.5106 312° West 381 438 25,600 660 Climbing Chicago Center
07:43AM 43.3336 -86.6283 318° Northwest 385 443 26,200 480 Climbing Chicago Center
07:44AM 43.4147 -86.7281 318° Northwest 389 448 26,700 480 Climbing Chicago Center
07:45AM 43.4947 -86.8300 317° Northwest 391 450 27,200 480 Climbing Chicago Center
07:46AM 43.5756 -86.9306 318° Northwest 392 451 27,700 480 Climbing Chicago Center
07:47AM 43.6397 -87.0117 318° Northwest 390 449 28,100 480 Climbing Minneapolis Center
07:48AM 43.7194 -87.1125 318° Northwest 390 449 28,600 480 Climbing Minneapolis Center
07:49AM 43.7992 -87.2133 318° Northwest 390 449 29,100 480 Climbing Minneapolis Center
07:50AM 43.8850 -87.3222 318° Northwest 390 449 29,600 480 Climbing Minneapolis Center
07:51AM 43.9633 -87.4222 317° Northwest 386 444 30,100 480 Climbing Minneapolis Center
07:52AM 44.0367 -87.5289 314° West 382 440 30,600 480 Climbing Minneapolis Center
07:53AM 44.0700 -87.6678 289° West 377 434 31,100 480 Climbing Minneapolis Center
07:54AM 44.1028 -87.8056 288° West 377 434 31,600 420 Climbing Minneapolis Center
07:55AM 44.1361 -87.9439 289° West 378 435 32,000 180 Climbing Minneapolis Center
07:56AM 44.2025 -88.0569 309° West 381 438 32,000  Level Minneapolis Center
07:57AM 44.2833 -88.1572 318° Northwest 388 447 32,000  Level Minneapolis Center
07:58AM 44.3786 -88.2650 321° Northwest 380 437 32,000  Level Minneapolis Center
07:59AM 44.4497 -88.3639 315° West 362 417 32,000  Level Minneapolis Center
08:00AM 44.4786 -88.5008 287° West 366 421 32,000  Level Minneapolis Center
08:01AM 44.5000 -88.6403 282° West 367 422 32,000  Level Minneapolis Center
08:02AM 44.5217 -88.7806 282° West 368 423 32,000  Level Minneapolis Center
08:04AM 44.5433 -88.9231 282° West 373 429 32,000  Level Minneapolis Center
08:05AM 44.5689 -89.0936 282° West 381 438 32,000  Level Minneapolis Center
08:06AM 44.5950 -89.2664 282° West 388 447 32,000  Level Minneapolis Center
08:07AM 44.6175 -89.4147 282° West 388 447 32,000  Level Minneapolis Center
08:08AM 44.6394 -89.5661 282° West 395 455 32,000  Level Minneapolis Center
08:09AM 44.6606 -89.7167 281° West 394 453 32,000  Level Minneapolis Center
08:10AM 44.6819 -89.8694 281° West 397 457 32,000  Level Minneapolis Center
08:11AM 44.7058 -90.0225 282° West 400 460 32,000  Level Minneapolis Center
08:12AM 44.7314 -90.1747 283° West 401 461 32,000  Level Minneapolis Center
08:13AM 44.7553 -90.3275 282° West 400 460 32,000 -60 Level Minneapolis Center
08:14AM 44.7800 -90.4789 283° West 399 459 31,900 -840 Descending Minneapolis Center
08:15AM 44.8089 -90.6686 282° West 410 472 30,200 -1,620 Descending Minneapolis Center
08:16AM 44.8356 -90.8339 283° West 430 495 28,600 -1,920 Descending Minneapolis Center
08:17AM 44.8622 -91.0256 281° West 421 484 26,400 -2,100 Descending Minneapolis Center
08:18AM 44.8856 -91.1800 282° West 410 472 24,400 -1,980 Descending Minneapolis Center
08:19AM 44.9103 -91.3342 283° West 405 466 22,400 -1,980 Descending Minneapolis Center
08:20AM 44.9303 -91.4881 280° West 403 464 20,400 -1,860 Descending Minneapolis Center
08:21AM 44.9547 -91.6403 283° West 401 461 18,700 -1,620 Descending Minneapolis Center
08:22AM 44.9792 -91.7881 283° West 392 451 17,100 -1,680 Descending Minneapolis Center
08:23AM 45.0000 -91.9353 281° West 385 443 15,400 -1,680 Descending Minneapolis Center
08:24AM 45.0200 -92.0794 281° West 377 434 13,700 -1,920 Descending Minneapolis Center
08:25AM 45.0447 -92.2522 282° West 374 430 11,500 -1,320 Descending Minneapolis Center
08:26AM 45.0333 -92.3861 263° West 345 397 11,100 -300 Descending Minneapolis Center
08:27AM 45.0139 -92.5150 258° West 339 390 11,000 -60 Descending Minneapolis Center
08:28AM 44.9933 -92.6450 257° West 341 392 11,000  Level Minneapolis Center
08:29AM 44.9725 -92.7733 257° West 338 389 11,000 -420 Level Minneapolis Center
08:30AM 44.9533 -92.8931 257° West 315 362 10,200 -900 Descending Minneapolis Center
08:31AM 44.9358 -93.0003 257° West 285 328 9,200 -1,080 Descending Minneapolis Center
08:32AM 44.9486 -93.1203 279° West 278 320 8,000 -1,320 Descending Minneapolis Center
08:33AM 44.9889 -93.2133 301° West 281 323 6,600 -1,440 Descending Minneapolis Center
08:34AM 45.0303 -93.3044 303° West 279 321 5,100 -1,020 Descending Minneapolis Center
08:35AM 45.0711 -93.4039 300° West 292 336 4,600 -600 Descending Minneapolis Center
08:37AM 45.0758 -93.4944 274° West 248 285 4,000 -300 Descending Minneapolis Center
08:38AM 45.0269 -93.4811 169° South 189 217 4,000  Level Minneapolis Center
08:39AM 44.9872 -93.4431 146° Southeast 174 200 4,000 -360 Level Minneapolis Center
08:40AM 44.9592 -93.3725 119° Southeast 173 199 3,300 -720 Descending Minneapolis Center